sensor_id;sensor_type;location;lat;lon;timestamp;pressure;altitude;pressure_sealevel;temperature;humidity
54038;BME280;39954;48.844;9.726;2023-08-06T00:00:26;95405.81;;;12.48;100.00
54038;BME280;39954;48.844;9.726;2023-08-06T00:01:31;95403.94;;;12.50;100.00
54038;BME280;39954;48.844;9.726;2023-08-06T00:02:34;95395.06;;;12.52;100.00
54038;BME280;39954;48.844;9.726;2023-08-06T00:03:39;95399.31;;;12.53;100.00
54038;BME280;39954;48.844;9.726;2023-08-06T00:04:42;95404.53;;;12.53;100.00
54038;BME280;39954;48.844;9.726;2023-08-06T00:05:50;95401.81;;;12.55;100.00
54038;BME280;39954;48.844;9.726;2023-08-06T00:06:52;95405.34;;;12.54;100.00
54038;BME280;39954;48.844;9.726;2023-08-06T00:07:55;95397.66;;;12.52;100.00
54038;BME280;39954;48.844;9.726;2023-08-06T00:09:00;95407.25;;;12.52;100.00
54038;BME280;39954;48.844;9.726;2023-08-06T00:10:04;95407.25;;;12.52;100.00
54038;BME280;39954;48.844;9.726;2023-08-06T00:11:09;95400.38;;;12.51;100.00
54038;BME280;39954;48.844;9.726;2023-08-06T00:12:12;95402.16;;;12.50;100.00
54038;BME280;39954;48.844;9.726;2023-08-06T00:13:19;95399.53;;;12.50;100.00
54038;BME280;39954;48.844;9.726;2023-08-06T00:14:22;95403.94;;;12.50;100.00
54038;BME280;39954;48.844;9.726;2023-08-06T00:15:27;95397.28;;;12.46;100.00
54038;BME280;39954;48.844;9.726;2023-08-06T00:16:30;95396.34;;;12.47;100.00
54038;BME280;39954;48.844;9.726;2023-08-06T00:17:35;95396.34;;;12.47;100.00
54038;BME280;39954;48.844;9.726;2023-08-06T00:18:39;95398.94;;;12.47;100.00
54038;BME280;39954;48.844;9.726;2023-08-06T00:19:45;95395.38;;;12.48;100.00
54038;BME280;39954;48.844;9.726;2023-08-06T00:20:50;95398.72;;;12.50;100.00
54038;BME280;39954;48.844;9.726;2023-08-06T00:21:57;95396.22;;;12.48;100.00
54038;BME280;39954;48.844;9.726;2023-08-06T00:23:00;95395.38;;;12.48;100.00
54038;BME280;39954;48.844;9.726;2023-08-06T00:24:05;95386.63;;;12.49;100.00
54038;BME280;39954;48.844;9.726;2023-08-06T00:25:08;95378.78;;;12.49;100.00
54038;BME280;39954;48.844;9.726;2023-08-06T00:26:13;95386.63;;;12.49;100.00
54038;BME280;39954;48.844;9.726;2023-08-06T00:27:16;95389.22;;;12.49;100.00
54038;BME280;39954;48.844;9.726;2023-08-06T00:28:21;95384.88;;;12.49;100.00
54038;BME280;39954;48.844;9.726;2023-08-06T00:29:24;95377.63;;;12.53;100.00
54038;BME280;39954;48.844;9.726;2023-08-06T00:30:29;95381.66;;;12.57;100.00
54038;BME280;39954;48.844;9.726;2023-08-06T00:31:32;95382.38;;;12.59;100.00
54038;BME280;39954;48.844;9.726;2023-08-06T00:32:37;95382.63;;;12.56;100.00
54038;BME280;39954;48.844;9.726;2023-08-06T00:33:40;95382.38;;;12.59;100.00
54038;BME280;39954;48.844;9.726;2023-08-06T00:34:42;95380.72;;;12.58;100.00
54038;BME280;39954;48.844;9.726;2023-08-06T00:35:51;95378.13;;;12.58;100.00
54038;BME280;39954;48.844;9.726;2023-08-06T00:36:53;95382.50;;;12.58;100.00
54038;BME280;39954;48.844;9.726;2023-08-06T00:37:58;95378.22;;;12.57;100.00
54038;BME280;39954;48.844;9.726;2023-08-06T00:39:01;95379.19;;;12.56;100.00
54038;BME280;39954;48.844;9.726;2023-08-06T00:40:07;95379.28;;;12.54;100.00
54038;BME280;39954;48.844;9.726;2023-08-06T00:41:10;95381.19;;;12.52;100.00
54038;BME280;39954;48.844;9.726;2023-08-06T00:42:15;95381.19;;;12.52;100.00
54038;BME280;39954;48.844;9.726;2023-08-06T00:43:22;95377.88;;;12.50;100.00
54038;BME280;39954;48.844;9.726;2023-08-06T00:44:25;95375.97;;;12.52;100.00
54038;BME280;39954;48.844;9.726;2023-08-06T00:45:31;95370.78;;;12.52;100.00
54038;BME280;39954;48.844;9.726;2023-08-06T00:46:36;95372.41;;;12.53;100.00
54038;BME280;39954;48.844;9.726;2023-08-06T00:47:41;95371.59;;;12.52;100.00
54038;BME280;39954;48.844;9.726;2023-08-06T00:48:44;95369.00;;;12.52;100.00
54038;BME280;39954;48.844;9.726;2023-08-06T00:49:49;95376.91;;;12.51;100.00
54038;BME280;39954;48.844;9.726;2023-08-06T00:50:55;95369.91;;;12.51;100.00
54038;BME280;39954;48.844;9.726;2023-08-06T00:52:01;95368.28;;;12.50;100.00
54038;BME280;39954;48.844;9.726;2023-08-06T00:53:04;95373.47;;;12.50;100.00
54038;BME280;39954;48.844;9.726;2023-08-06T00:54:10;95377.88;;;12.50;100.00
54038;BME280;39954;48.844;9.726;2023-08-06T00:55:12;95372.41;;;12.53;100.00
54038;BME280;39954;48.844;9.726;2023-08-06T00:56:17;95370.63;;;12.53;100.00
54038;BME280;39954;48.844;9.726;2023-08-06T00:57:24;95365.44;;;12.53;100.00
54038;BME280;39954;48.844;9.726;2023-08-06T00:58:29;95367.22;;;12.53;100.00
54038;BME280;39954;48.844;9.726;2023-08-06T00:59:32;95364.59;;;12.53;100.00
54038;BME280;39954;48.844;9.726;2023-08-06T01:00:38;95369.00;;;12.52;100.00
54038;BME280;39954;48.844;9.726;2023-08-06T01:01:41;95375.03;;;12.53;100.00
54038;BME280;39954;48.844;9.726;2023-08-06T01:02:48;95367.22;;;12.53;100.00
54038;BME280;39954;48.844;9.726;2023-08-06T01:03:51;95369.69;;;12.54;100.00
54038;BME280;39954;48.844;9.726;2023-08-06T01:04:57;95365.31;;;12.55;100.00
54038;BME280;39954;48.844;9.726;2023-08-06T01:06:02;95365.31;;;12.55;100.00
54038;BME280;39954;48.844;9.726;2023-08-06T01:07:18;95363.41;;;12.57;100.00
54038;BME280;39954;48.844;9.726;2023-08-06T01:08:30;95365.31;;;12.55;100.00
54038;BME280;39954;48.844;9.726;2023-08-06T01:09:48;95356.53;;;12.56;100.00
54038;BME280;39954;48.844;9.726;2023-08-06T01:12:25;95360.44;;;12.50;100.00
54038;BME280;39954;48.844;9.726;2023-08-06T01:13:41;95355.56;;;12.46;100.00
54038;BME280;39954;48.844;9.726;2023-08-06T01:14:53;95358.31;;;12.44;100.00
54038;BME280;39954;48.844;9.726;2023-08-06T01:16:00;95357.50;;;12.44;100.00
54038;BME280;39954;48.844;9.726;2023-08-06T01:17:04;95359.13;;;12.45;100.00
54038;BME280;39954;48.844;9.726;2023-08-06T01:18:10;95352.28;;;12.44;100.00
54038;BME280;39954;48.844;9.726;2023-08-06T01:19:16;95355.81;;;12.43;100.00
54038;BME280;39954;48.844;9.726;2023-08-06T01:20:21;95348.94;;;12.42;100.00
54038;BME280;39954;48.844;9.726;2023-08-06T01:21:26;95347.16;;;12.42;100.00
54038;BME280;39954;48.844;9.726;2023-08-06T01:22:31;95352.38;;;12.42;100.00
54038;BME280;39954;48.844;9.726;2023-08-06T01:23:34;95350.59;;;12.43;100.00
54038;BME280;39954;48.844;9.726;2023-08-06T01:24:40;95348.72;;;12.45;100.00
54038;BME280;39954;48.844;9.726;2023-08-06T01:25:49;95338.06;;;12.48;100.00
54038;BME280;39954;48.844;9.726;2023-08-06T01:27:03;95345.78;;;12.49;100.00
54038;BME280;39954;48.844;9.726;2023-08-06T01:28:15;95341.38;;;12.50;100.00
54038;BME280;39954;48.844;9.726;2023-08-06T01:29:27;95338.06;;;12.48;100.00
54038;BME280;39954;48.844;9.726;2023-08-06T01:30:33;95338.88;;;12.48;100.00
54038;BME280;39954;48.844;9.726;2023-08-06T01:31:44;95340.56;;;12.49;100.00
54038;BME280;39954;48.844;9.726;2023-08-06T01:32:50;95344.72;;;12.52;100.00
54038;BME280;39954;48.844;9.726;2023-08-06T01:33:59;95341.16;;;12.53;100.00
54038;BME280;39954;48.844;9.726;2023-08-06T01:35:04;95334.28;;;12.52;100.00
54038;BME280;39954;48.844;9.726;2023-08-06T01:36:09;95340.44;;;12.51;100.00
54038;BME280;39954;48.844;9.726;2023-08-06T01:37:14;95335.44;;;12.48;100.00
54038;BME280;39954;48.844;9.726;2023-08-06T01:38:20;95338.06;;;12.48;100.00
54038;BME280;39954;48.844;9.726;2023-08-06T01:39:22;95338.28;;;12.45;100.00
54038;BME280;39954;48.844;9.726;2023-08-06T01:40:28;95327.28;;;12.41;100.00
54038;BME280;39954;48.844;9.726;2023-08-06T01:41:31;95340.66;;;12.37;100.00
54038;BME280;39954;48.844;9.726;2023-08-06T01:42:40;95328.34;;;12.39;100.00
54038;BME280;39954;48.844;9.726;2023-08-06T01:43:43;95330.47;;;12.34;100.00
54038;BME280;39954;48.844;9.726;2023-08-06T01:44:45;95334.94;;;12.31;100.00
54038;BME280;39954;48.844;9.726;2023-08-06T01:45:51;95333.53;;;12.27;100.00
54038;BME280;39954;48.844;9.726;2023-08-06T01:46:53;95332.09;;;12.23;100.00
54038;BME280;39954;48.844;9.726;2023-08-06T01:47:58;95327.34;;;12.17;100.00
54038;BME280;39954;48.844;9.726;2023-08-06T01:49:01;95331.38;;;12.10;100.00
54038;BME280;39954;48.844;9.726;2023-08-06T01:50:07;95324.84;;;12.04;100.00
54038;BME280;39954;48.844;9.726;2023-08-06T01:51:09;95330.25;;;12.01;100.00
54038;BME280;39954;48.844;9.726;2023-08-06T01:52:17;95327.56;;;12.03;100.00
54038;BME280;39954;48.844;9.726;2023-08-06T01:53:20;95321.84;;;11.98;100.00
54038;BME280;39954;48.844;9.726;2023-08-06T01:54:25;95328.25;;;11.94;100.00
54038;BME280;39954;48.844;9.726;2023-08-06T01:55:29;95327.63;;;11.90;100.00
54038;BME280;39954;48.844;9.726;2023-08-06T01:56:34;95325.88;;;11.91;100.00
54038;BME280;39954;48.844;9.726;2023-08-06T01:57:36;95322.84;;;11.84;100.00
54038;BME280;39954;48.844;9.726;2023-08-06T01:58:41;95315.50;;;11.78;100.00
54038;BME280;39954;48.844;9.726;2023-08-06T01:59:44;95329.56;;;11.75;100.00
54038;BME280;39954;48.844;9.726;2023-08-06T02:00:49;95322.94;;;11.71;100.00
54038;BME280;39954;48.844;9.726;2023-08-06T02:01:52;95327.31;;;11.71;100.00
54038;BME280;39954;48.844;9.726;2023-08-06T02:02:57;95325.53;;;11.71;100.00
54038;BME280;39954;48.844;9.726;2023-08-06T02:04:00;95322.72;;;11.74;100.00
54038;BME280;39954;48.844;9.726;2023-08-06T02:05:06;95325.91;;;11.78;100.00
54038;BME280;39954;48.844;9.726;2023-08-06T02:06:08;95322.84;;;11.84;100.00
54038;BME280;39954;48.844;9.726;2023-08-06T02:07:11;95322.66;;;11.87;100.00
54038;BME280;39954;48.844;9.726;2023-08-06T02:08:19;95318.06;;;11.91;100.00
54038;BME280;39954;48.844;9.726;2023-08-06T02:09:21;95320.44;;;11.94;100.00
54038;BME280;39954;48.844;9.726;2023-08-06T02:10:26;95316.41;;;12.01;100.00
54038;BME280;39954;48.844;9.726;2023-08-06T02:11:29;95313.34;;;12.07;100.00
54038;BME280;39954;48.844;9.726;2023-08-06T02:12:34;95318.56;;;12.07;100.00
54038;BME280;39954;48.844;9.726;2023-08-06T02:13:37;95309.81;;;12.08;100.00
54038;BME280;39954;48.844;9.726;2023-08-06T02:14:42;95308.63;;;12.12;100.00
54038;BME280;39954;48.844;9.726;2023-08-06T02:15:45;95313.84;;;12.12;100.00
54038;BME280;39954;48.844;9.726;2023-08-06T02:16:51;95311.00;;;12.15;100.00
54038;BME280;39954;48.844;9.726;2023-08-06T02:17:54;95315.97;;;12.18;100.00
54038;BME280;39954;48.844;9.726;2023-08-06T02:18:59;95313.28;;;12.20;100.00
54038;BME280;39954;48.844;9.726;2023-08-06T02:20:02;95314.22;;;12.19;100.00
54038;BME280;39954;48.844;9.726;2023-08-06T02:21:07;95314.09;;;12.20;100.00
54038;BME280;39954;48.844;9.726;2023-08-06T02:22:09;95307.09;;;12.21;100.00
54038;BME280;39954;48.844;9.726;2023-08-06T02:23:14;95306.19;;;12.22;100.00
54038;BME280;39954;48.844;9.726;2023-08-06T02:24:19;95307.00;;;12.22;100.00
54038;BME280;39954;48.844;9.726;2023-08-06T02:25:25;95310.56;;;12.21;100.00
54038;BME280;39954;48.844;9.726;2023-08-06T02:26:27;95311.63;;;12.19;100.00
54038;BME280;39954;48.844;9.726;2023-08-06T02:27:33;95300.34;;;12.18;100.00
54038;BME280;39954;48.844;9.726;2023-08-06T02:28:35;95301.44;;;12.16;100.00
54038;BME280;39954;48.844;9.726;2023-08-06T02:29:40;95300.59;;;12.15;100.00
54038;BME280;39954;48.844;9.726;2023-08-06T02:30:49;95298.09;;;12.14;100.00
54038;BME280;39954;48.844;9.726;2023-08-06T02:31:55;95293.97;;;12.11;100.00
54038;BME280;39954;48.844;9.726;2023-08-06T02:32:57;95297.53;;;12.10;100.00
54038;BME280;39954;48.844;9.726;2023-08-06T02:34:03;95291.34;;;12.11;100.00
54038;BME280;39954;48.844;9.726;2023-08-06T02:35:06;95292.31;;;12.10;100.00
54038;BME280;39954;48.844;9.726;2023-08-06T02:36:12;95294.31;;;12.18;100.00
54038;BME280;39954;48.844;9.726;2023-08-06T02:37:14;95289.09;;;12.18;100.00
54038;BME280;39954;48.844;9.726;2023-08-06T02:38:19;95284.38;;;12.12;100.00
54038;BME280;39954;48.844;9.726;2023-08-06T02:39:24;95295.84;;;12.09;100.00
54038;BME280;39954;48.844;9.726;2023-08-06T02:40:30;95288.97;;;12.08;100.00
54038;BME280;39954;48.844;9.726;2023-08-06T02:41:32;95285.78;;;12.04;100.00
54038;BME280;39954;48.844;9.726;2023-08-06T02:42:37;95290.88;;;12.06;100.00
54038;BME280;39954;48.844;9.726;2023-08-06T02:43:40;95289.91;;;12.07;100.00
54038;BME280;39954;48.844;9.726;2023-08-06T02:44:45;95292.50;;;12.07;100.00
54038;BME280;39954;48.844;9.726;2023-08-06T02:45:47;95288.97;;;12.08;100.00
54038;BME280;39954;48.844;9.726;2023-08-06T02:46:53;95292.50;;;12.07;100.00
54038;BME280;39954;48.844;9.726;2023-08-06T02:47:55;95293.00;;;12.12;100.00
54038;BME280;39954;48.844;9.726;2023-08-06T02:49:00;95289.56;;;12.12;100.00
54038;BME280;39954;48.844;9.726;2023-08-06T02:50:04;95283.53;;;12.11;100.00
54038;BME280;39954;48.844;9.726;2023-08-06T02:51:09;95283.53;;;12.11;100.00
54038;BME280;39954;48.844;9.726;2023-08-06T02:52:11;95279.28;;;12.10;100.00
54038;BME280;39954;48.844;9.726;2023-08-06T02:53:17;95287.19;;;12.08;100.00
54038;BME280;39954;48.844;9.726;2023-08-06T02:54:19;95285.44;;;12.09;100.00
54038;BME280;39954;48.844;9.726;2023-08-06T02:55:27;95281.03;;;12.09;100.00
54038;BME280;39954;48.844;9.726;2023-08-06T02:56:30;95279.38;;;12.08;100.00
54038;BME280;39954;48.844;9.726;2023-08-06T02:57:35;95282.09;;;12.07;100.00
54038;BME280;39954;48.844;9.726;2023-08-06T02:58:37;95277.38;;;12.12;100.00
54038;BME280;39954;48.844;9.726;2023-08-06T02:59:43;95278.19;;;12.13;100.00
54038;BME280;39954;48.844;9.726;2023-08-06T03:00:45;95275.97;;;12.08;100.00
54038;BME280;39954;48.844;9.726;2023-08-06T03:01:51;95266.72;;;12.04;100.00
54038;BME280;39954;48.844;9.726;2023-08-06T03:02:54;95262.78;;;11.98;100.00
54038;BME280;39954;48.844;9.726;2023-08-06T03:03:59;95265.53;;;11.97;100.00
54038;BME280;39954;48.844;9.726;2023-08-06T03:05:02;95261.97;;;11.98;100.00
54038;BME280;39954;48.844;9.726;2023-08-06T03:06:08;95269.06;;;11.96;100.00
54038;BME280;39954;48.844;9.726;2023-08-06T03:07:10;95270.84;;;11.95;100.00
54038;BME280;39954;48.844;9.726;2023-08-06T03:08:16;95270.84;;;11.95;100.00
54038;BME280;39954;48.844;9.726;2023-08-06T03:09:18;95270.97;;;11.94;100.00
54038;BME280;39954;48.844;9.726;2023-08-06T03:10:23;95264.94;;;11.93;100.00
54038;BME280;39954;48.844;9.726;2023-08-06T03:11:28;95261.97;;;11.98;100.00
54038;BME280;39954;48.844;9.726;2023-08-06T03:12:33;95256.75;;;11.98;100.00
54038;BME280;39954;48.844;9.726;2023-08-06T03:13:36;95269.06;;;11.96;100.00
54038;BME280;39954;48.844;9.726;2023-08-06T03:14:41;95259.72;;;11.93;100.00
54038;BME280;39954;48.844;9.726;2023-08-06T03:15:44;95258.88;;;11.93;100.00
54038;BME280;39954;48.844;9.726;2023-08-06T03:16:56;95257.47;;;11.89;100.00
54038;BME280;39954;48.844;9.726;2023-08-06T03:17:59;95261.72;;;11.90;100.00
54038;BME280;39954;48.844;9.726;2023-08-06T03:19:04;95254.97;;;11.87;100.00
54038;BME280;39954;48.844;9.726;2023-08-06T03:20:07;95245.56;;;11.84;100.00
54038;BME280;39954;48.844;9.726;2023-08-06T03:21:13;95255.81;;;11.88;100.00
54038;BME280;39954;48.844;9.726;2023-08-06T03:22:15;95255.09;;;11.85;100.00
54038;BME280;39954;48.844;9.726;2023-08-06T03:23:21;95254.13;;;11.86;100.00
54038;BME280;39954;48.844;9.726;2023-08-06T03:24:24;95253.44;;;11.96;100.00
54038;BME280;39954;48.844;9.726;2023-08-06T03:25:30;95246.72;;;11.93;100.00
54038;BME280;39954;48.844;9.726;2023-08-06T03:26:36;95252.25;;;11.89;100.00
54038;BME280;39954;48.844;9.726;2023-08-06T03:27:41;95245.41;;;11.88;100.00
54038;BME280;39954;48.844;9.726;2023-08-06T03:28:44;95250.09;;;11.82;100.00
54038;BME280;39954;48.844;9.726;2023-08-06T03:29:49;95246.66;;;11.82;100.00
54038;BME280;39954;48.844;9.726;2023-08-06T03:30:59;95250.31;;;11.79;100.00
54038;BME280;39954;48.844;9.726;2023-08-06T03:32:05;95252.06;;;11.79;100.00
54038;BME280;39954;48.844;9.726;2023-08-06T03:33:08;95254.66;;;11.79;100.00
54038;BME280;39954;48.844;9.726;2023-08-06T03:34:15;95249.81;;;11.74;100.00
54038;BME280;39954;48.844;9.726;2023-08-06T03:35:18;95256.91;;;11.72;100.00
54038;BME280;39954;48.844;9.726;2023-08-06T03:36:23;95255.03;;;11.74;100.00
54038;BME280;39954;48.844;9.726;2023-08-06T03:37:29;95250.75;;;11.73;100.00
54038;BME280;39954;48.844;9.726;2023-08-06T03:38:31;95259.50;;;11.72;100.00
54038;BME280;39954;48.844;9.726;2023-08-06T03:39:36;95257.63;;;11.74;100.00
54038;BME280;39954;48.844;9.726;2023-08-06T03:40:38;95255.75;;;11.76;100.00
54038;BME280;39954;48.844;9.726;2023-08-06T03:41:46;95249.09;;;11.72;100.00
54038;BME280;39954;48.844;9.726;2023-08-06T03:42:48;95246.72;;;11.69;100.00
54038;BME280;39954;48.844;9.726;2023-08-06T03:43:53;95242.25;;;11.71;100.00
54038;BME280;39954;48.844;9.726;2023-08-06T03:44:55;95241.53;;;11.69;100.00
54038;BME280;39954;48.844;9.726;2023-08-06T03:46:00;95248.63;;;11.67;100.00
54038;BME280;39954;48.844;9.726;2023-08-06T03:47:02;95240.13;;;11.65;100.00
54038;BME280;39954;48.844;9.726;2023-08-06T03:48:04;95241.84;;;11.64;100.00
54038;BME280;39954;48.844;9.726;2023-08-06T03:49:09;95236.78;;;11.63;100.00
54038;BME280;39954;48.844;9.726;2023-08-06T03:50:12;95249.06;;;11.61;100.00
54038;BME280;39954;48.844;9.726;2023-08-06T03:51:16;95239.50;;;11.61;100.00
54038;BME280;39954;48.844;9.726;2023-08-06T03:52:19;95245.41;;;11.63;100.00
54038;BME280;39954;48.844;9.726;2023-08-06T03:53:24;95236.88;;;11.61;100.00
54038;BME280;39954;48.844;9.726;2023-08-06T03:54:26;95237.94;;;11.59;100.00
54038;BME280;39954;48.844;9.726;2023-08-06T03:55:31;95230.84;;;11.61;100.00
54038;BME280;39954;48.844;9.726;2023-08-06T03:56:34;95231.09;;;11.58;100.00
54038;BME280;39954;48.844;9.726;2023-08-06T03:57:41;95241.59;;;11.56;100.00
54038;BME280;39954;48.844;9.726;2023-08-06T03:58:43;95237.94;;;11.59;100.00
54038;BME280;39954;48.844;9.726;2023-08-06T03:59:48;95238.91;;;11.58;100.00
54038;BME280;39954;48.844;9.726;2023-08-06T04:00:59;95231.31;;;11.55;100.00
54038;BME280;39954;48.844;9.726;2023-08-06T04:02:04;95236.38;;;11.56;100.00
54038;BME280;39954;48.844;9.726;2023-08-06T04:03:07;95232.97;;;11.56;100.00
54038;BME280;39954;48.844;9.726;2023-08-06T04:04:11;95234.84;;;11.54;100.00
54038;BME280;39954;48.844;9.726;2023-08-06T04:05:14;95236.53;;;11.55;100.00
54038;BME280;39954;48.844;9.726;2023-08-06T04:06:19;95230.38;;;11.56;100.00
54038;BME280;39954;48.844;9.726;2023-08-06T04:07:21;95235.25;;;11.60;100.00
54038;BME280;39954;48.844;9.726;2023-08-06T04:08:26;95235.84;;;11.64;100.00
54038;BME280;39954;48.844;9.726;2023-08-06T04:09:29;95242.91;;;11.62;100.00
54038;BME280;39954;48.844;9.726;2023-08-06T04:10:33;95237.59;;;11.63;100.00
54038;BME280;39954;48.844;9.726;2023-08-06T04:11:36;95238.44;;;11.64;100.00
54038;BME280;39954;48.844;9.726;2023-08-06T04:12:43;95236.78;;;11.63;100.00
54038;BME280;39954;48.844;9.726;2023-08-06T04:13:45;95233.22;;;11.64;100.00
54038;BME280;39954;48.844;9.726;2023-08-06T04:14:51;95239.03;;;11.68;100.00
54038;BME280;39954;48.844;9.726;2023-08-06T04:15:53;95237.28;;;11.68;100.00
54038;BME280;39954;48.844;9.726;2023-08-06T04:16:59;95235.59;;;11.67;100.00
54038;BME280;39954;48.844;9.726;2023-08-06T04:18:01;95225.91;;;11.69;100.00
54038;BME280;39954;48.844;9.726;2023-08-06T04:19:06;95232.91;;;11.69;100.00
54038;BME280;39954;48.844;9.726;2023-08-06T04:20:09;95234.81;;;11.78;100.00
54038;BME280;39954;48.844;9.726;2023-08-06T04:21:13;95218.59;;;11.74;100.00
54038;BME280;39954;48.844;9.726;2023-08-06T04:22:16;95227.00;;;11.78;100.00
54038;BME280;39954;48.844;9.726;2023-08-06T04:23:20;95234.81;;;11.78;100.00
54038;BME280;39954;48.844;9.726;2023-08-06T04:24:23;95232.34;;;11.76;100.00
54038;BME280;39954;48.844;9.726;2023-08-06T04:25:28;95222.38;;;11.81;100.00
54038;BME280;39954;48.844;9.726;2023-08-06T04:26:30;95227.72;;;11.80;100.00
54038;BME280;39954;48.844;9.726;2023-08-06T04:27:35;95226.91;;;11.79;100.00
54038;BME280;39954;48.844;9.726;2023-08-06T04:28:42;95226.91;;;11.79;100.00
54038;BME280;39954;48.844;9.726;2023-08-06T04:29:47;95227.59;;;11.81;100.00
54038;BME280;39954;48.844;9.726;2023-08-06T04:30:49;95220.63;;;11.82;100.00
54038;BME280;39954;48.844;9.726;2023-08-06T04:31:55;95221.25;;;11.85;100.00
54038;BME280;39954;48.844;9.726;2023-08-06T04:32:57;95228.31;;;11.83;100.00
54038;BME280;39954;48.844;9.726;2023-08-06T04:34:00;95222.16;;;11.84;100.00
54038;BME280;39954;48.844;9.726;2023-08-06T04:35:05;95220.63;;;11.82;100.00
54038;BME280;39954;48.844;9.726;2023-08-06T04:36:08;95219.19;;;11.78;100.00
54038;BME280;39954;48.844;9.726;2023-08-06T04:37:13;95215.75;;;11.77;100.00
54038;BME280;39954;48.844;9.726;2023-08-06T04:38:15;95219.41;;;11.75;100.00
54038;BME280;39954;48.844;9.726;2023-08-06T04:39:20;95213.25;;;11.76;100.00
54038;BME280;39954;48.844;9.726;2023-08-06T04:40:22;95216.72;;;11.76;100.00
54038;BME280;39954;48.844;9.726;2023-08-06T04:41:27;95211.72;;;11.73;100.00
54038;BME280;39954;48.844;9.726;2023-08-06T04:42:29;95224.84;;;11.72;100.00
54038;BME280;39954;48.844;9.726;2023-08-06T04:43:34;95222.97;;;11.74;100.00
54038;BME280;39954;48.844;9.726;2023-08-06T04:44:39;95226.50;;;11.73;100.00
54038;BME280;39954;48.844;9.726;2023-08-06T04:45:46;95229.00;;;11.74;100.00
54038;BME280;39954;48.844;9.726;2023-08-06T04:46:50;95232.53;;;11.73;100.00
54038;BME280;39954;48.844;9.726;2023-08-06T04:47:55;95230.66;;;11.75;100.00
54038;BME280;39954;48.844;9.726;2023-08-06T04:48:58;95228.53;;;11.80;100.00
54038;BME280;39954;48.844;9.726;2023-08-06T04:50:03;95229.13;;;11.84;100.00
54038;BME280;39954;48.844;9.726;2023-08-06T04:51:05;95218.59;;;11.74;100.00
54038;BME280;39954;48.844;9.726;2023-08-06T04:52:10;95219.66;;;11.72;100.00
54038;BME280;39954;48.844;9.726;2023-08-06T04:53:12;95224.97;;;11.70;100.00
54038;BME280;39954;48.844;9.726;2023-08-06T04:54:17;95227.56;;;11.70;100.00
54038;BME280;39954;48.844;9.726;2023-08-06T04:55:19;95225.91;;;11.69;100.00
54038;BME280;39954;48.844;9.726;2023-08-06T04:56:24;95217.16;;;11.70;100.00
54038;BME280;39954;48.844;9.726;2023-08-06T04:57:26;95218.38;;;11.77;100.00
54038;BME280;39954;48.844;9.726;2023-08-06T04:58:31;95211.72;;;11.73;100.00
54038;BME280;39954;48.844;9.726;2023-08-06T04:59:33;95216.91;;;11.73;100.00
54038;BME280;39954;48.844;9.726;2023-08-06T05:00:41;95211.72;;;11.73;100.00
54038;BME280;39954;48.844;9.726;2023-08-06T05:01:43;95213.84;;;11.68;100.00
54038;BME280;39954;48.844;9.726;2023-08-06T05:02:48;95220.94;;;11.66;100.00
54038;BME280;39954;48.844;9.726;2023-08-06T05:03:50;95224.69;;;11.62;100.00
54038;BME280;39954;48.844;9.726;2023-08-06T05:04:55;95227.44;;;11.60;100.00
54038;BME280;39954;48.844;9.726;2023-08-06T05:05:58;95221.28;;;11.61;100.00
54038;BME280;39954;48.844;9.726;2023-08-06T05:07:03;95226.97;;;11.67;100.00
54038;BME280;39954;48.844;9.726;2023-08-06T05:08:05;95222.22;;;11.60;100.00
54038;BME280;39954;48.844;9.726;2023-08-06T05:09:10;95225.88;;;11.58;100.00
54038;BME280;39954;48.844;9.726;2023-08-06T05:10:12;95220.44;;;11.61;100.00
54038;BME280;39954;48.844;9.726;2023-08-06T05:11:17;95220.53;;;11.59;100.00
54038;BME280;39954;48.844;9.726;2023-08-06T05:12:19;95227.66;;;11.57;100.00
54038;BME280;39954;48.844;9.726;2023-08-06T05:13:24;95229.53;;;11.55;100.00
54038;BME280;39954;48.844;9.726;2023-08-06T05:14:27;95226.72;;;11.58;100.00
54038;BME280;39954;48.844;9.726;2023-08-06T05:15:31;95225.88;;;11.58;100.00
54038;BME280;39954;48.844;9.726;2023-08-06T05:16:37;95231.59;;;11.63;100.00
54038;BME280;39954;48.844;9.726;2023-08-06T05:17:42;95226.47;;;11.61;100.00
54038;BME280;39954;48.844;9.726;2023-08-06T05:18:44;95226.59;;;11.60;100.00
54038;BME280;39954;48.844;9.726;2023-08-06T05:19:49;95219.50;;;11.62;100.00
54038;BME280;39954;48.844;9.726;2023-08-06T05:20:51;95226.38;;;11.63;100.00
54038;BME280;39954;48.844;9.726;2023-08-06T05:21:56;95228.34;;;11.59;100.00
54038;BME280;39954;48.844;9.726;2023-08-06T05:22:58;95226.72;;;11.58;100.00
54038;BME280;39954;48.844;9.726;2023-08-06T05:24:03;95228.25;;;11.61;100.00
54038;BME280;39954;48.844;9.726;2023-08-06T05:25:06;95235.25;;;11.60;100.00
54038;BME280;39954;48.844;9.726;2023-08-06T05:26:11;95228.47;;;11.58;100.00
54038;BME280;39954;48.844;9.726;2023-08-06T05:27:13;95231.09;;;11.58;100.00
54038;BME280;39954;48.844;9.726;2023-08-06T05:28:20;95218.91;;;11.58;100.00
54038;BME280;39954;48.844;9.726;2023-08-06T05:29:23;95230.25;;;11.57;100.00
54038;BME280;39954;48.844;9.726;2023-08-06T05:30:29;95233.34;;;11.62;100.00
54038;BME280;39954;48.844;9.726;2023-08-06T05:31:31;95220.78;;;11.56;100.00
54038;BME280;39954;48.844;9.726;2023-08-06T05:32:39;95227.44;;;11.60;100.00
54038;BME280;39954;48.844;9.726;2023-08-06T05:33:41;95229.69;;;11.65;100.00
54038;BME280;39954;48.844;9.726;2023-08-06T05:34:46;95229.06;;;11.61;100.00
54038;BME280;39954;48.844;9.726;2023-08-06T05:35:49;95228.75;;;11.66;100.00
54038;BME280;39954;48.844;9.726;2023-08-06T05:36:54;95227.91;;;11.65;100.00
54038;BME280;39954;48.844;9.726;2023-08-06T05:37:56;95229.69;;;11.65;100.00
54038;BME280;39954;48.844;9.726;2023-08-06T05:39:01;95236.56;;;11.66;100.00